createdAt,value
2023-02-11T00:01:19.182Z,10.93
2023-02-11T00:03:46.247Z,9.93
2023-02-11T00:06:13.298Z,11.50
2023-02-11T00:08:40.235Z,16.42
2023-02-11T00:11:07.745Z,11.88
2023-02-11T00:13:34.772Z,9.68
2023-02-11T00:16:07.460Z,11.75
2023-02-11T00:18:34.469Z,10.55
2023-02-11T00:21:16.162Z,9.63
2023-02-11T00:23:43.655Z,9.23
2023-02-11T00:26:31.032Z,13.23
2023-02-11T00:28:58.138Z,12.82
2023-02-11T00:31:25.984Z,10.95
2023-02-11T00:33:54.320Z,9.25
2023-02-11T00:36:26.818Z,10.60
2023-02-11T00:38:55.132Z,13.15
2023-02-11T00:41:22.610Z,9.40
2023-02-11T00:43:50.145Z,12.02
2023-02-11T00:46:19.724Z,10.02
2023-02-11T00:48:46.692Z,12.93
2023-02-11T00:51:13.733Z,9.88
2023-02-11T00:53:40.704Z,10.30
2023-02-11T00:56:08.406Z,12.25
2023-02-11T00:58:35.854Z,10.75
2023-02-11T01:01:03.281Z,7.20
2023-02-11T01:03:30.270Z,10.25
2023-02-11T01:05:57.181Z,13.90
2023-02-11T01:08:24.872Z,8.98
2023-02-11T01:11:18.848Z,10.95
2023-02-11T01:13:46.743Z,10.88
2023-02-11T01:16:14.222Z,9.50
2023-02-11T01:18:42.799Z,8.57
2023-02-11T01:21:10.688Z,12.68
2023-02-11T01:23:37.606Z,9.95
2023-02-11T01:26:05.516Z,10.48
2023-02-11T01:28:33.294Z,12.55
2023-02-11T01:31:02.045Z,11.77
2023-02-11T01:33:29.746Z,9.95
2023-02-11T01:36:00.198Z,10.75
2023-02-11T01:38:28.491Z,7.95
2023-02-11T01:41:10.225Z,10.48
2023-02-11T01:43:41.995Z,10.13
2023-02-11T01:46:11.972Z,12.55
2023-02-11T01:48:43.831Z,11.80
2023-02-11T01:51:26.303Z,12.27
2023-02-11T01:54:12.994Z,12.10
2023-02-11T01:57:03.096Z,11.05
2023-02-11T01:59:59.482Z,9.60
2023-02-11T02:02:54.330Z,13.23
2023-02-11T02:05:27.372Z,11.88
2023-02-11T02:07:59.179Z,8.77
2023-02-11T02:10:28.037Z,8.43
2023-02-11T02:12:55.096Z,13.30
2023-02-11T02:15:29.416Z,11.57
2023-02-11T02:18:20.418Z,11.05
2023-02-11T02:20:53.207Z,24.75
2023-02-11T02:23:37.277Z,9.10
2023-02-11T02:28:52.509Z,10.88
2023-02-11T02:32:10.339Z,10.70
2023-02-11T02:34:49.118Z,15.57
2023-02-11T02:37:47.441Z,12.18
2023-02-11T02:40:25.639Z,23.65
2023-02-11T02:42:54.029Z,15.88
2023-02-11T02:45:21.085Z,12.43
2023-02-11T02:47:48.004Z,17.75
2023-02-11T02:50:18.514Z,11.23
2023-02-11T02:53:20.727Z,13.00
2023-02-11T02:56:03.161Z,12.57
2023-02-11T02:58:53.039Z,18.70
2023-02-11T03:02:05.361Z,12.00
2023-02-11T03:05:10.569Z,13.13
2023-02-11T03:07:55.333Z,8.52
2023-02-11T03:10:28.184Z,15.68
2023-02-11T03:12:56.960Z,12.02
2023-02-11T03:15:28.127Z,8.43
2023-02-11T03:17:59.755Z,19.70
2023-02-11T03:20:28.208Z,11.55
2023-02-11T03:23:08.731Z,13.82
2023-02-11T03:25:41.601Z,7.22
2023-02-11T03:28:32.518Z,6.87
2023-02-11T03:31:02.351Z,9.98
2023-02-11T03:33:37.683Z,8.07
2023-02-11T03:36:09.357Z,10.18
2023-02-11T03:38:47.094Z,9.15
2023-02-11T03:41:17.659Z,10.00
2023-02-11T03:43:50.657Z,10.38
2023-02-11T03:46:22.557Z,7.47
2023-02-11T03:48:53.655Z,11.23
2023-02-11T03:51:22.126Z,11.23
2023-02-11T03:53:52.630Z,8.38
2023-02-11T03:56:24.450Z,19.13
2023-02-11T03:58:51.794Z,13.88
2023-02-11T04:01:19.200Z,12.27
2023-02-11T04:03:46.153Z,8.55
2023-02-11T04:06:13.146Z,10.57
2023-02-11T04:08:40.345Z,9.07
2023-02-11T04:11:07.356Z,9.55
2023-02-11T04:13:34.300Z,8.15
2023-02-11T04:16:01.291Z,8.77
2023-02-11T04:18:28.472Z,9.55
2023-02-11T04:20:55.503Z,8.48
2023-02-11T04:23:22.427Z,10.25
2023-02-11T04:25:50.469Z,8.25
2023-02-11T04:28:17.857Z,9.88
2023-02-11T04:30:44.940Z,7.90
2023-02-11T04:33:12.052Z,10.15
2023-02-11T04:35:38.995Z,6.88
2023-02-11T04:38:05.986Z,10.48
2023-02-11T04:40:33.050Z,9.93
2023-02-11T04:43:00.069Z,14.88
2023-02-11T04:45:27.027Z,14.18
2023-02-11T04:47:54.162Z,13.07
2023-02-11T04:50:21.202Z,13.32
2023-02-11T04:52:48.479Z,11.20
2023-02-11T04:55:15.764Z,10.35
2023-02-11T04:57:42.705Z,11.57
2023-02-11T05:00:10.440Z,16.15
2023-02-11T05:02:37.340Z,11.43
2023-02-11T05:05:04.984Z,11.10
2023-02-11T05:07:32.062Z,10.63
2023-02-11T05:09:58.964Z,10.13
2023-02-11T05:12:25.941Z,10.98
2023-02-11T05:14:52.893Z,11.45
2023-02-11T05:17:19.857Z,12.73
2023-02-11T05:19:46.793Z,13.40
2023-02-11T05:22:13.695Z,10.80
2023-02-11T05:24:40.685Z,9.25
2023-02-11T05:27:07.656Z,11.27
2023-02-11T05:29:34.610Z,11.88
2023-02-11T05:32:01.815Z,13.73
2023-02-11T05:34:28.793Z,10.85
2023-02-11T05:36:55.794Z,13.13
2023-02-11T05:39:22.849Z,9.10
2023-02-11T05:41:49.930Z,7.65
2023-02-11T05:44:17.121Z,6.88
2023-02-11T05:46:44.187Z,12.60
2023-02-11T05:49:11.230Z,16.10
2023-02-11T05:51:38.201Z,13.75
2023-02-11T05:54:05.314Z,11.45
2023-02-11T05:56:32.242Z,10.88
2023-02-11T05:59:00.057Z,10.25
2023-02-11T06:01:28.135Z,10.77
2023-02-11T06:03:55.269Z,8.90
2023-02-11T06:06:22.299Z,8.52
2023-02-11T06:08:49.297Z,11.32
2023-02-11T06:11:17.797Z,8.80
2023-02-11T06:13:44.718Z,14.00
2023-02-11T06:16:11.769Z,8.95
2023-02-11T06:18:38.913Z,14.55
2023-02-11T06:21:10.646Z,8.20
2023-02-11T06:23:38.769Z,15.90
2023-02-11T06:26:08.157Z,13.75
2023-02-11T06:28:36.153Z,11.27
2023-02-11T06:31:07.597Z,12.80
2023-02-11T06:33:35.534Z,17.38
2023-02-11T06:36:02.771Z,13.73
2023-02-11T06:38:29.693Z,12.45
2023-02-11T06:40:56.872Z,15.25
2023-02-11T06:43:23.813Z,19.48
2023-02-11T06:45:55.511Z,10.30
2023-02-11T06:48:23.555Z,19.75
2023-02-11T06:50:50.496Z,17.92
2023-02-11T06:53:17.556Z,30.45
2023-02-11T06:55:44.496Z,24.45
2023-02-11T06:58:11.507Z,20.02
2023-02-11T07:00:38.807Z,17.35
2023-02-11T07:03:05.887Z,19.13
2023-02-11T07:05:34.270Z,24.45
2023-02-11T07:08:01.307Z,20.95
2023-02-11T07:10:28.271Z,26.90
2023-02-11T07:12:57.116Z,22.17
2023-02-11T07:15:26.217Z,29.58
2023-02-11T07:20:19.966Z,27.45
2023-02-11T17:10:50.771Z,83.88
2023-02-11T17:13:17.897Z,83.70
2023-02-11T17:15:44.779Z,89.75
2023-02-11T17:18:14.821Z,85.50
2023-02-11T17:20:42.043Z,85.10
2023-02-11T17:23:09.575Z,86.45
2023-02-11T17:25:40.761Z,92.22
2023-02-11T17:28:09.341Z,96.47
2023-02-11T17:30:36.355Z,82.85
2023-02-11T17:33:03.279Z,88.40
2023-02-11T17:35:30.259Z,79.57
2023-02-11T17:37:58.735Z,72.32
2023-02-11T17:40:26.437Z,83.15
2023-02-11T17:42:53.385Z,93.57
2023-02-11T17:45:22.245Z,100.10
2023-02-11T17:47:49.745Z,87.75
2023-02-11T17:50:16.998Z,92.28
2023-02-11T17:52:44.001Z,83.57
2023-02-11T17:55:10.926Z,87.07
2023-02-11T17:57:38.140Z,82.35
2023-02-11T18:00:07.784Z,75.75
2023-02-11T18:02:39.743Z,74.05
2023-02-11T18:05:06.983Z,72.38
2023-02-11T18:07:34.097Z,80.78
2023-02-11T18:10:01.212Z,75.75
2023-02-11T18:12:28.138Z,71.90
2023-02-11T18:14:57.888Z,78.97
2023-02-11T18:17:25.537Z,82.15
2023-02-11T18:19:56.381Z,71.30
2023-02-11T18:22:24.619Z,85.20
2023-02-11T18:24:53.356Z,73.90
2023-02-11T18:27:22.266Z,75.50
2023-02-11T18:29:49.411Z,70.90
2023-02-11T18:32:16.681Z,72.95
2023-02-11T18:34:43.760Z,71.13
2023-02-11T18:37:11.627Z,67.75
2023-02-11T18:39:38.849Z,76.53
2023-02-11T18:42:05.939Z,79.63
2023-02-11T18:44:32.911Z,72.07
2023-02-11T18:46:59.909Z,71.60
2023-02-11T18:49:27.082Z,70.20
2023-02-11T18:51:55.042Z,71.70
2023-02-11T18:54:21.959Z,84.22
2023-02-11T18:56:48.949Z,76.03
2023-02-11T18:59:16.124Z,85.85
2023-02-11T19:01:46.840Z,76.60
2023-02-11T19:04:18.987Z,78.68
2023-02-11T19:06:49.476Z,71.53
2023-02-11T19:09:19.552Z,74.50
2023-02-11T19:11:46.878Z,80.20
2023-02-11T19:14:16.577Z,80.35
2023-02-11T19:16:44.513Z,76.93
2023-02-11T19:19:12.524Z,73.75
2023-02-11T19:21:41.562Z,66.13
2023-02-11T19:24:09.010Z,73.07
2023-02-11T19:26:36.721Z,73.25
2023-02-11T19:29:05.356Z,70.38
2023-02-11T19:31:32.870Z,70.38
2023-02-11T19:34:00.738Z,66.57
2023-02-11T19:36:28.229Z,67.35
2023-02-11T19:38:55.145Z,64.20
2023-02-11T19:41:23.191Z,58.63
2023-02-11T19:43:53.621Z,65.57
2023-02-11T19:46:21.462Z,83.60
2023-02-11T19:48:49.322Z,92.18
2023-02-11T19:51:17.284Z,66.78
2023-02-11T19:53:45.237Z,61.05
2023-02-11T19:56:13.351Z,54.88
2023-02-11T19:58:41.183Z,60.40
2023-02-11T20:01:09.403Z,59.10
2023-02-11T20:03:37.738Z,63.10
2023-02-11T20:06:06.697Z,64.43
2023-02-11T20:08:33.843Z,65.20
2023-02-11T20:11:11.156Z,68.90
2023-02-11T20:13:38.760Z,67.43
2023-02-11T20:16:14.044Z,62.45
2023-02-11T20:18:41.250Z,61.47
2023-02-11T20:21:16.781Z,69.30
2023-02-11T20:23:46.454Z,69.00
2023-02-11T20:26:25.623Z,65.53
